createdAt,value
2018-08-03T00:00:26.254Z,101829.66
2018-08-03T00:01:30.653Z,101830.70
2018-08-03T00:02:35.246Z,101828.82
2018-08-03T00:03:39.498Z,101819.91
2018-08-03T00:04:43.756Z,101834.27
2018-08-03T00:05:47.998Z,101827.97
2018-08-03T00:06:52.272Z,101826.09
2018-08-03T00:07:56.621Z,101832.05
2018-08-03T00:09:00.799Z,101830.39
2018-08-03T00:10:06.559Z,101826.31
2018-08-03T00:11:10.813Z,101828.19
2018-08-03T00:12:15.142Z,101827.34
2018-08-03T00:13:19.275Z,101825.98
2018-08-03T00:14:23.510Z,101823.55
2018-08-03T00:15:27.754Z,101826.72
2018-08-03T00:16:32.065Z,101833.52
2018-08-03T00:17:36.696Z,101824.84
2018-08-03T00:18:40.883Z,101820.94
2018-08-03T00:19:45.498Z,101822.30
2018-08-03T00:20:50.011Z,101821.97
2018-08-03T00:21:54.367Z,101823.55
2018-08-03T00:22:58.659Z,101824.40
2018-08-03T00:24:02.962Z,101818.30
2018-08-03T00:25:07.938Z,101821.02
2018-08-03T00:26:12.179Z,101821.23
2018-08-03T00:27:16.350Z,101816.30
2018-08-03T00:28:20.573Z,101816.30
2018-08-03T00:29:24.711Z,101819.54
2018-08-03T00:30:28.882Z,101819.39
2018-08-03T00:31:33.281Z,101821.78
2018-08-03T00:32:37.500Z,101812.98
2018-08-03T00:33:42.114Z,101823.87
2018-08-03T00:34:46.333Z,101816.11
2018-08-03T00:35:50.849Z,101815.27
2018-08-03T00:36:55.066Z,101818.17
2018-08-03T00:37:59.526Z,101815.15
2018-08-03T00:39:04.650Z,101815.15
2018-08-03T00:40:08.886Z,101814.19
2018-08-03T00:41:13.105Z,101811.65
2018-08-03T00:42:17.329Z,101821.69
2018-08-03T00:43:21.694Z,101815.62
2018-08-03T00:44:25.955Z,101817.16
2018-08-03T00:45:30.321Z,101816.86
2018-08-03T00:46:34.533Z,101820.61
2018-08-03T00:47:38.909Z,101818.41
2018-08-03T00:48:43.126Z,101824.36
2018-08-03T00:49:47.329Z,101820.48
2018-08-03T00:50:51.530Z,101821.01
2018-08-03T00:51:55.801Z,101813.03
2018-08-03T00:52:59.989Z,101821.41
2018-08-03T00:54:04.429Z,101819.38
2018-08-03T00:55:08.755Z,101821.25
2018-08-03T00:56:12.922Z,101820.95
2018-08-03T00:57:17.221Z,101823.34
2018-08-03T00:58:21.613Z,101818.93
2018-08-03T00:59:26.174Z,101819.47
2018-08-03T01:00:30.365Z,101816.94
2018-08-03T01:01:34.828Z,101816.09
2018-08-03T01:02:39.005Z,101812.23
2018-08-03T01:03:43.303Z,101814.28
2018-08-03T01:04:47.475Z,101819.42
2018-08-03T01:05:51.773Z,101815.01
2018-08-03T01:06:55.998Z,101816.88
2018-08-03T01:08:00.200Z,101816.03
2018-08-03T01:09:07.079Z,101818.12
2018-08-03T01:10:11.448Z,101819.16
2018-08-03T01:11:15.768Z,101818.81
2018-08-03T01:12:20.060Z,101825.61
2018-08-03T01:13:24.278Z,101818.52
2018-08-03T01:14:28.453Z,101820.27
2018-08-03T01:15:32.693Z,101816.19
2018-08-03T01:16:42.201Z,101818.58
2018-08-03T01:17:46.320Z,101815.53
2018-08-03T01:18:50.712Z,101815.23
2018-08-03T01:19:54.893Z,101815.53
2018-08-03T01:20:59.317Z,101815.74
2018-08-03T01:22:03.736Z,101815.23
2018-08-03T01:23:08.047Z,101811.15
2018-08-03T01:24:12.214Z,101811.66
2018-08-03T01:25:16.556Z,101815.41
2018-08-03T01:26:20.989Z,101813.92
2018-08-03T01:27:25.196Z,101810.36
2018-08-03T01:28:29.513Z,101817.34
2018-08-03T01:29:33.789Z,101817.04
2018-08-03T01:30:37.998Z,101818.06
2018-08-03T01:31:42.189Z,101813.48
2018-08-03T01:32:46.437Z,101814.17
2018-08-03T01:33:51.030Z,101810.94
2018-08-03T01:34:55.235Z,101814.72
2018-08-03T01:35:59.633Z,101815.74
2018-08-03T01:37:03.901Z,101806.37
2018-08-03T01:38:08.452Z,101806.92
2018-08-03T01:39:12.695Z,101808.28
2018-08-03T01:40:16.857Z,101806.37
2018-08-03T01:41:21.172Z,101807.95
2018-08-03T01:42:25.318Z,101804.05
2018-08-03T01:43:29.482Z,101807.28
2018-08-03T01:44:33.821Z,101805.62
2018-08-03T01:45:38.153Z,101802.91
2018-08-03T01:46:42.313Z,101807.28
2018-08-03T01:47:46.694Z,101805.62
2018-08-03T01:48:51.136Z,101800.70
2018-08-03T01:49:55.298Z,101805.28
2018-08-03T01:50:59.846Z,101802.56
2018-08-03T01:52:04.048Z,101803.59
2018-08-03T01:53:08.427Z,101812.80
2018-08-03T01:54:12.557Z,101806.70
2018-08-03T01:55:17.068Z,101805.55
2018-08-03T01:56:21.202Z,101804.38
2018-08-03T01:57:25.505Z,101802.17
2018-08-03T01:58:29.769Z,101803.73
2018-08-03T01:59:34.041Z,101803.41
2018-08-03T02:00:38.510Z,101803.92
2018-08-03T02:01:43.079Z,101807.15
2018-08-03T02:02:47.381Z,101804.31
2018-08-03T02:03:51.796Z,101806.19
2018-08-03T02:04:56.108Z,101797.57
2018-08-03T02:06:00.332Z,101807.63
2018-08-03T02:07:04.526Z,101806.45
2018-08-03T02:08:08.760Z,101799.53
2018-08-03T02:09:12.960Z,101801.41
2018-08-03T02:10:17.199Z,101804.62
2018-08-03T02:11:21.434Z,101804.51
2018-08-03T02:12:25.623Z,101798.74
2018-08-03T02:13:29.807Z,101799.46
2018-08-03T02:14:34.234Z,101801.16
2018-08-03T02:15:38.629Z,101806.77
2018-08-03T02:16:43.277Z,101801.67
2018-08-03T02:17:47.447Z,101802.69
2018-08-03T02:18:51.870Z,101805.62
2018-08-03T02:19:56.108Z,101807.48
2018-08-03T02:21:00.322Z,101803.08
2018-08-03T02:22:04.812Z,101810.38
2018-08-03T02:23:09.134Z,101805.46
2018-08-03T02:24:13.346Z,101801.08
2018-08-03T02:25:17.681Z,101805.16
2018-08-03T02:26:21.953Z,101802.44
2018-08-03T02:27:26.101Z,101804.83
2018-08-03T02:28:30.286Z,101801.77
2018-08-03T02:29:34.705Z,101805.00
2018-08-03T02:30:38.934Z,101801.98
2018-08-03T02:31:43.305Z,101803.52
2018-08-03T02:32:47.494Z,101797.45
2018-08-03T02:33:51.994Z,101796.61
2018-08-03T02:34:56.226Z,101795.42
2018-08-03T02:36:00.558Z,101800.04
2018-08-03T02:37:04.786Z,101800.22
2018-08-03T02:38:09.387Z,101799.88
2018-08-03T02:39:13.577Z,101797.16
2018-08-03T02:40:17.783Z,101799.58
2018-08-03T02:41:22.092Z,101804.67
2018-08-03T02:42:26.257Z,101794.53
2018-08-03T02:43:30.706Z,101800.98
2018-08-03T02:44:34.920Z,101806.93
2018-08-03T02:45:39.146Z,101808.47
2018-08-03T02:46:43.428Z,101805.75
2018-08-03T02:47:47.622Z,101804.94
2018-08-03T02:48:51.818Z,101799.17
2018-08-03T02:49:56.065Z,101807.65
2018-08-03T02:51:00.273Z,101808.16
2018-08-03T02:52:04.605Z,101806.47
2018-08-03T02:53:09.110Z,101815.80
2018-08-03T02:54:13.534Z,101813.25
2018-08-03T02:55:17.727Z,101814.28
2018-08-03T02:56:21.991Z,101819.70
2018-08-03T02:57:26.310Z,101818.05
2018-08-03T02:58:30.701Z,101818.05
2018-08-03T02:59:35.124Z,101818.05
2018-08-03T03:00:47.772Z,101813.64
2018-08-03T03:01:52.036Z,101817.04
2018-08-03T03:02:56.242Z,101819.42
2018-08-03T03:04:00.558Z,101819.42
2018-08-03T03:05:04.870Z,101819.08
2018-08-03T03:06:09.098Z,101819.42
2018-08-03T03:07:13.266Z,101819.42
2018-08-03T03:08:17.496Z,101820.44
2018-08-03T03:09:21.849Z,101813.35
2018-08-03T03:10:26.040Z,101813.35
2018-08-03T03:11:30.191Z,101817.59
2018-08-03T03:12:34.701Z,101808.27
2018-08-03T03:13:39.114Z,101810.17
2018-08-03T03:14:43.377Z,101808.98
2018-08-03T03:15:47.524Z,101809.84
2018-08-03T03:16:51.742Z,101812.22
2018-08-03T03:17:56.161Z,101811.37
2018-08-03T03:19:00.643Z,101812.42
2018-08-03T03:20:05.149Z,101822.95
2018-08-03T03:21:09.302Z,101822.23
2018-08-03T03:22:13.530Z,101815.65
2018-08-03T03:23:17.739Z,101815.82
2018-08-03T03:24:21.921Z,101820.73
2018-08-03T03:25:26.104Z,101814.47
2018-08-03T03:26:30.283Z,101815.82
2018-08-03T03:27:34.719Z,101813.62
2018-08-03T03:28:39.013Z,101813.95
2018-08-03T03:29:43.226Z,101818.53
2018-08-03T03:30:47.406Z,101819.89
2018-08-03T03:31:51.637Z,101821.25
2018-08-03T03:32:55.786Z,101815.18
2018-08-03T03:34:00.108Z,101823.12
2018-08-03T03:35:04.739Z,101819.25
2018-08-03T03:36:08.962Z,101821.63
2018-08-03T03:37:13.353Z,101825.70
2018-08-03T03:38:17.608Z,101819.13
2018-08-03T03:39:21.814Z,101813.36
2018-08-03T03:40:26.102Z,101817.94
2018-08-03T03:41:30.495Z,101819.50
2018-08-03T03:42:34.662Z,101814.25
2018-08-03T03:43:38.918Z,101816.63
2018-08-03T03:44:43.193Z,101815.81
2018-08-03T03:45:47.466Z,101813.27
2018-08-03T03:46:52.123Z,101817.01
2018-08-03T03:47:56.295Z,101819.42
2018-08-03T03:49:00.653Z,101824.84
2018-08-03T03:50:05.897Z,101825.66
2018-08-03T03:51:10.547Z,101822.95
2018-08-03T03:52:14.790Z,101819.42
2018-08-03T03:53:19.043Z,101819.08
2018-08-03T03:54:23.430Z,101820.44
2018-08-03T03:55:27.583Z,101819.08
2018-08-03T03:56:31.810Z,101820.09
2018-08-03T03:57:35.977Z,101820.30
2018-08-03T03:58:40.213Z,101820.81
2018-08-03T03:59:44.427Z,101822.55
2018-08-03T04:00:48.675Z,101823.57
2018-08-03T04:01:53.045Z,101823.78
2018-08-03T04:02:57.406Z,101820.72
2018-08-03T04:04:01.657Z,101822.93
2018-08-03T04:05:06.581Z,101821.23
2018-08-03T04:06:10.890Z,101823.61
2018-08-03T04:07:15.149Z,101819.75
2018-08-03T04:08:19.282Z,101826.33
2018-08-03T04:09:23.510Z,101820.59
2018-08-03T04:10:27.709Z,101824.84
2018-08-03T04:11:31.998Z,101816.19
2018-08-03T04:12:36.246Z,101820.26
2018-08-03T04:13:40.652Z,101818.05
2018-08-03T04:14:44.842Z,101815.85
2018-08-03T04:15:49.129Z,101818.56
2018-08-03T04:16:53.286Z,101817.72
2018-08-03T04:17:57.486Z,101811.14
2018-08-03T04:19:01.862Z,101809.45
2018-08-03T04:20:06.490Z,101807.58
2018-08-03T04:21:10.746Z,101810.29
2018-08-03T04:22:15.187Z,101808.09
2018-08-03T04:23:19.710Z,101807.58
2018-08-03T04:24:23.959Z,101806.22
2018-08-03T04:25:28.600Z,101813.00
2018-08-03T04:26:32.730Z,101810.80
2018-08-03T04:27:37.096Z,101809.45
2018-08-03T04:28:41.264Z,101809.11
2018-08-03T04:29:45.634Z,101809.82
2018-08-03T04:30:49.857Z,101801.34
2018-08-03T04:31:54.082Z,101809.82
2018-08-03T04:32:58.295Z,101807.11
2018-08-03T04:34:03.025Z,101809.82
2018-08-03T04:35:07.398Z,101810.16
2018-08-03T04:36:11.602Z,101810.16
2018-08-03T04:37:15.816Z,101807.11
2018-08-03T04:38:20.234Z,101806.09
2018-08-03T04:39:24.805Z,101808.80
2018-08-03T04:40:29.040Z,101816.09
2018-08-03T04:41:33.226Z,101810.46
2018-08-03T04:42:37.464Z,101821.31
2018-08-03T04:43:41.699Z,101811.31
2018-08-03T04:44:46.335Z,101814.88
2018-08-03T04:45:50.489Z,101818.94
2018-08-03T04:46:54.702Z,101813.52
2018-08-03T04:47:58.997Z,101813.85
2018-08-03T04:49:03.320Z,101815.20
2018-08-03T04:50:07.610Z,101814.70
2018-08-03T04:51:11.793Z,101812.83
2018-08-03T04:52:16.232Z,101816.36
2018-08-03T04:53:20.403Z,101821.28
2018-08-03T04:54:24.852Z,101822.97
2018-08-03T04:55:29.318Z,101821.95
2018-08-03T04:56:33.789Z,101824.33
2018-08-03T04:57:38.221Z,101830.60
2018-08-03T04:58:42.450Z,101833.11
2018-08-03T04:59:46.709Z,101827.89
2018-08-03T05:00:50.989Z,101831.95
2018-08-03T05:01:55.174Z,101829.24
2018-08-03T05:02:59.414Z,101830.09
2018-08-03T05:04:03.834Z,101833.11
2018-08-03T05:05:08.206Z,101831.75
2018-08-03T05:06:12.435Z,101830.22
2018-08-03T05:07:16.831Z,101829.72
2018-08-03T05:08:21.078Z,101832.73
2018-08-03T05:09:25.262Z,101832.05
2018-08-03T05:10:29.497Z,101835.45
2018-08-03T05:11:33.784Z,101838.50
2018-08-03T05:12:37.982Z,101831.72
2018-08-03T05:13:42.257Z,101830.36
2018-08-03T05:14:46.438Z,101833.41
2018-08-03T05:15:50.806Z,101838.83
2018-08-03T05:16:55.031Z,101837.27
2018-08-03T05:17:59.289Z,101840.33
2018-08-03T05:19:03.801Z,101840.16
2018-08-03T05:20:08.520Z,101837.74
2018-08-03T05:21:12.678Z,101835.37
2018-08-03T05:22:17.232Z,101835.70
2018-08-03T05:23:21.530Z,101837.36
2018-08-03T05:24:25.999Z,101836.86
2018-08-03T05:25:30.209Z,101834.98
2018-08-03T05:26:34.457Z,101830.91
2018-08-03T05:27:38.703Z,101836.98
2018-08-03T05:28:43.193Z,101831.05
2018-08-03T05:29:47.538Z,101836.81
2018-08-03T05:30:51.725Z,101842.38
2018-08-03T05:31:56.179Z,101835.92
2018-08-03T05:33:00.790Z,101834.69
2018-08-03T05:34:05.291Z,101832.45
2018-08-03T05:35:09.721Z,101831.34
2018-08-03T05:36:13.962Z,101837.41
2018-08-03T05:37:18.627Z,101833.63
2018-08-03T05:38:22.951Z,101831.20
2018-08-03T05:39:27.142Z,101832.63
2018-08-03T05:40:31.317Z,101836.45
2018-08-03T05:41:35.703Z,101833.80
2018-08-03T05:42:40.098Z,101828.33
2018-08-03T05:43:44.350Z,101831.80
2018-08-03T05:44:48.826Z,101830.39
2018-08-03T05:45:53.021Z,101831.36
2018-08-03T05:46:57.382Z,101827.23
2018-08-03T05:48:01.612Z,101829.05
2018-08-03T05:49:06.055Z,101829.63
2018-08-03T05:50:10.285Z,101831.05
2018-08-03T05:51:14.647Z,101828.09
2018-08-03T05:52:18.779Z,101830.94
2018-08-03T05:53:23.163Z,101829.19
2018-08-03T05:54:27.408Z,101829.34
2018-08-03T05:55:31.658Z,101832.11
2018-08-03T05:56:35.946Z,101832.35
2018-08-03T05:57:40.125Z,101834.80
2018-08-03T05:58:44.623Z,101835.58
2018-08-03T05:59:48.822Z,101838.93
2018-08-03T06:00:53.173Z,101834.48
2018-08-03T06:01:57.399Z,101832.73
2018-08-03T06:03:01.803Z,101835.05
2018-08-03T06:04:06.344Z,101840.40
2018-08-03T06:05:10.551Z,101838.34
2018-08-03T06:06:15.147Z,101829.97
2018-08-03T06:07:19.376Z,101834.19
2018-08-03T06:08:23.693Z,101833.47
2018-08-03T06:09:27.956Z,101833.06
2018-08-03T06:10:32.338Z,101825.34
2018-08-03T06:11:36.649Z,101830.53
2018-08-03T06:12:40.865Z,101832.45
2018-08-03T06:13:45.058Z,101834.27
2018-08-03T06:14:49.239Z,101833.05
2018-08-03T06:15:53.598Z,101838.72
2018-08-03T06:16:57.960Z,101837.80
2018-08-03T06:18:02.460Z,101839.60
2018-08-03T06:19:06.951Z,101837.51
2018-08-03T06:20:12.778Z,101838.17
2018-08-03T06:21:17.275Z,101839.83
2018-08-03T06:22:21.493Z,101842.36
2018-08-03T06:23:25.698Z,101838.72
2018-08-03T06:24:30.651Z,101836.11
2018-08-03T06:25:34.970Z,101839.79
2018-08-03T06:26:39.354Z,101833.42
2018-08-03T06:27:43.565Z,101837.94
2018-08-03T06:28:47.817Z,101839.01
2018-08-03T06:29:52.483Z,101830.57
2018-08-03T06:30:56.827Z,101830.30
2018-08-03T06:32:01.387Z,101830.84
2018-08-03T06:33:05.586Z,101835.48
2018-08-03T06:34:10.106Z,101831.63
2018-08-03T06:35:14.467Z,101834.89
2018-08-03T06:36:18.950Z,101835.62
2018-08-03T06:37:23.149Z,101839.11
2018-08-03T06:38:27.341Z,101840.39
2018-08-03T06:39:31.518Z,101838.61
2018-08-03T06:40:35.726Z,101838.52
2018-08-03T06:41:39.994Z,101837.88
2018-08-03T06:42:44.254Z,101837.47
2018-08-03T06:43:48.457Z,101838.83
2018-08-03T06:44:52.915Z,101825.52
2018-08-03T06:45:57.337Z,101840.42
2018-08-03T06:47:01.496Z,101837.69
2018-08-03T06:48:05.764Z,101841.37
2018-08-03T06:49:09.897Z,101837.19
2018-08-03T06:50:14.259Z,101846.34
2018-08-03T06:51:18.760Z,101842.55
2018-08-03T06:52:23.112Z,101843.91
2018-08-03T06:53:27.310Z,101845.28
2018-08-03T06:54:31.577Z,101843.20
2018-08-03T06:55:35.784Z,101848.66
2018-08-03T06:56:39.974Z,101838.78
2018-08-03T06:57:44.365Z,101844.86
2018-08-03T06:58:48.686Z,101842.05
2018-08-03T06:59:53.018Z,101841.62
2018-08-03T07:00:57.922Z,101831.78
2018-08-03T07:02:02.125Z,101835.34
2018-08-03T07:03:06.366Z,101840.70
2018-08-03T07:04:10.864Z,101836.09
2018-08-03T07:05:15.102Z,101841.02
2018-08-03T07:06:19.730Z,101839.98
2018-08-03T07:07:24.020Z,101839.00
2018-08-03T07:08:28.343Z,101837.54
2018-08-03T07:09:32.521Z,101837.12
2018-08-03T07:10:36.712Z,101836.82
2018-08-03T07:11:40.895Z,101841.43
2018-08-03T07:12:45.083Z,101839.22
2018-08-03T07:13:49.482Z,101846.37
2018-08-03T07:14:53.843Z,101842.28
2018-08-03T07:15:58.056Z,101841.72
2018-08-03T07:17:02.471Z,101842.80
2018-08-03T07:18:07.131Z,101842.28
2018-08-03T07:19:11.330Z,101836.69
2018-08-03T07:20:15.766Z,101842.37
2018-08-03T07:21:25.522Z,101838.80
2018-08-03T07:22:29.766Z,101840.35
2018-08-03T07:23:33.982Z,101834.61
2018-08-03T07:24:38.238Z,101848.02
2018-08-03T07:25:42.544Z,101835.23
2018-08-03T07:26:46.792Z,101841.33
2018-08-03T07:27:50.982Z,101836.17
2018-08-03T07:28:55.365Z,101838.70
2018-08-03T07:29:59.634Z,101836.50
2018-08-03T07:31:03.970Z,101835.46
2018-08-03T07:32:08.226Z,101836.08
2018-08-03T07:33:12.404Z,101840.79
2018-08-03T07:34:17.060Z,101837.02
2018-08-03T07:35:21.286Z,101837.97
2018-08-03T07:36:25.684Z,101836.61
2018-08-03T07:37:29.917Z,101837.97
2018-08-03T07:38:34.420Z,101836.28
2018-08-03T07:39:39.173Z,101837.02
2018-08-03T07:40:44.161Z,101835.66
2018-08-03T07:41:48.744Z,101841.11
2018-08-03T07:42:53.589Z,101840.92
2018-08-03T07:43:58.232Z,101835.56
2018-08-03T07:45:03.620Z,101838.62
2018-08-03T07:46:09.299Z,101834.81
2018-08-03T07:47:15.095Z,101853.49
2018-08-03T07:48:20.273Z,101834.63
2018-08-03T07:49:24.875Z,101835.67
2018-08-03T07:50:29.155Z,101843.43
2018-08-03T07:51:33.613Z,101841.88
2018-08-03T07:52:37.954Z,101839.77
2018-08-03T07:53:42.427Z,101838.82
2018-08-03T07:54:47.033Z,101839.77
2018-08-03T07:55:51.441Z,101837.36
2018-08-03T07:56:55.797Z,101838.30
2018-08-03T07:58:00.260Z,101834.82
2018-08-03T07:59:05.419Z,101839.56
2018-08-03T08:00:10.069Z,101836.09
2018-08-03T08:01:15.886Z,101839.66
2018-08-03T08:02:20.304Z,101829.46
2018-08-03T08:03:24.705Z,101836.02
2018-08-03T08:04:28.983Z,101834.66
2018-08-03T08:05:33.491Z,101834.66
2018-08-03T08:06:37.678Z,101834.95
2018-08-03T08:07:41.894Z,101820.84
2018-08-03T08:08:47.245Z,101833.16
2018-08-03T08:09:51.608Z,101827.50
2018-08-03T08:10:56.064Z,101828.12
2018-08-03T08:12:00.240Z,101827.92
2018-08-03T08:13:04.417Z,101827.17
2018-08-03T08:14:08.958Z,101831.06
2018-08-03T08:15:13.254Z,101831.16
2018-08-03T08:16:17.493Z,101827.68
2018-08-03T08:17:21.625Z,101828.65
2018-08-03T08:18:25.904Z,101824.84
2018-08-03T08:19:30.231Z,101817.82
2018-08-03T08:20:34.375Z,101821.69
2018-08-03T08:21:39.004Z,101824.94
2018-08-03T08:22:43.358Z,101821.69
2018-08-03T08:23:47.633Z,101825.06
2018-08-03T08:24:51.855Z,101825.67
2018-08-03T08:25:56.088Z,101825.48
2018-08-03T08:27:00.308Z,101820.11
2018-08-03T08:28:04.667Z,101820.43
2018-08-03T08:29:08.843Z,101821.05
2018-08-03T08:30:13.004Z,101817.27
2018-08-03T08:31:17.205Z,101821.14
2018-08-03T08:32:21.482Z,101819.05
2018-08-03T08:33:25.676Z,101811.14
2018-08-03T08:34:30.056Z,101819.98
2018-08-03T08:35:34.285Z,101813.77
2018-08-03T08:36:38.526Z,101809.99
2018-08-03T08:37:42.757Z,101806.19
2018-08-03T08:38:46.950Z,101806.59
2018-08-03T08:39:51.410Z,101806.16
2018-08-03T08:40:55.671Z,101808.17
2018-08-03T08:41:59.851Z,101796.61
2018-08-03T08:43:04.034Z,101806.30
2018-08-03T08:44:08.285Z,101796.73
2018-08-03T08:45:12.466Z,101807.83
2018-08-03T08:46:16.671Z,101800.25
2018-08-03T08:47:21.015Z,101805.27
2018-08-03T08:48:25.194Z,101809.70
2018-08-03T08:49:29.624Z,101801.30
2018-08-03T08:50:33.781Z,101800.95
2018-08-03T08:51:38.054Z,101801.55
2018-08-03T08:52:42.321Z,101800.51
2018-08-03T08:53:46.954Z,101802.80
2018-08-03T08:54:51.299Z,101800.70
2018-08-03T08:55:55.345Z,101798.70
2018-08-03T08:56:59.647Z,101796.17
2018-08-03T08:58:03.955Z,101797.39
2018-08-03T08:59:08.136Z,101801.60
2018-08-03T09:00:12.411Z,101804.73
2018-08-03T09:01:16.599Z,101803.98
2018-08-03T09:02:20.990Z,101796.91
2018-08-03T09:03:25.196Z,101799.44
2018-08-03T09:04:29.594Z,101798.47
2018-08-03T09:05:33.843Z,101796.88
2018-08-03T09:06:38.263Z,101797.51
2018-08-03T09:07:42.621Z,101794.86
2018-08-03T09:08:46.972Z,101790.02
2018-08-03T09:09:51.118Z,101796.21
2018-08-03T09:10:55.378Z,101795.77
2018-08-03T09:11:59.541Z,101795.33
2018-08-03T09:13:03.806Z,101793.52
2018-08-03T09:14:08.225Z,101793.30
2018-08-03T09:15:12.427Z,101790.33
2018-08-03T09:16:16.797Z,101791.49
2018-08-03T09:17:21.093Z,101789.28
2018-08-03T09:18:25.351Z,101789.60
2018-08-03T09:19:29.670Z,101791.81
2018-08-03T09:20:33.913Z,101787.15
2018-08-03T09:21:38.173Z,101784.42
2018-08-03T09:22:42.434Z,101780.62
2018-08-03T09:23:46.626Z,101780.11
2018-08-03T09:24:50.888Z,101780.50
2018-08-03T09:25:55.134Z,101775.64
2018-08-03T09:26:59.341Z,101783.39
2018-08-03T09:28:03.483Z,101782.95
2018-08-03T09:29:07.850Z,101780.00
2018-08-03T09:30:12.160Z,101778.39
2018-08-03T09:31:16.425Z,101778.50
2018-08-03T09:32:20.664Z,101784.37
2018-08-03T09:33:25.079Z,101783.39
2018-08-03T09:34:29.500Z,101777.92
2018-08-03T09:35:33.737Z,101777.68
2018-08-03T09:36:38.198Z,101775.79
2018-08-03T09:37:42.307Z,101778.59
2018-08-03T09:38:46.510Z,101784.47
2018-08-03T09:39:51.174Z,101779.41
2018-08-03T09:40:55.393Z,101778.36
2018-08-03T09:41:59.655Z,101776.75
2018-08-03T09:43:03.915Z,101777.91
2018-08-03T09:44:09.119Z,101779.88
2018-08-03T09:45:13.354Z,101773.03
2018-08-03T09:46:17.666Z,101773.67
2018-08-03T09:47:22.051Z,101769.84
2018-08-03T09:48:26.290Z,101776.23
2018-08-03T09:49:30.735Z,101768.34
2018-08-03T09:50:35.350Z,101767.81
2018-08-03T09:51:40.038Z,101772.00
2018-08-03T09:52:44.439Z,101774.80
2018-08-03T09:53:48.738Z,101773.96
2018-08-03T09:54:53.149Z,101767.96
2018-08-03T09:55:57.592Z,101768.34
2018-08-03T09:57:01.794Z,101772.77
2018-08-03T09:58:06.191Z,101764.77
2018-08-03T09:59:10.763Z,101767.61
2018-08-03T10:00:16.636Z,101764.31
2018-08-03T10:01:21.090Z,101761.89
2018-08-03T10:02:25.404Z,101755.57
2018-08-03T10:03:29.935Z,101757.57
2018-08-03T10:04:34.344Z,101756.80
2018-08-03T10:05:38.690Z,101757.40
2018-08-03T10:06:42.999Z,101755.29
2018-08-03T10:07:47.354Z,101753.67
2018-08-03T10:08:52.336Z,101754.83
2018-08-03T10:09:56.569Z,101748.83
2018-08-03T10:11:00.885Z,101751.32
2018-08-03T10:12:05.130Z,101749.50
2018-08-03T10:13:09.375Z,101743.03
2018-08-03T10:14:13.787Z,101748.36
2018-08-03T10:15:18.200Z,101747.38
2018-08-03T10:16:22.534Z,101746.48
2018-08-03T10:17:26.721Z,101743.00
2018-08-03T10:18:31.508Z,101746.66
2018-08-03T10:19:36.131Z,101743.73
2018-08-03T10:20:40.530Z,101745.73
2018-08-03T10:21:44.766Z,101745.27
2018-08-03T10:22:49.225Z,101749.44
2018-08-03T10:23:53.475Z,101735.53
2018-08-03T10:24:57.693Z,101745.19
2018-08-03T10:26:01.943Z,101738.08
2018-08-03T10:27:06.135Z,101733.97
2018-08-03T10:28:10.396Z,101731.55
2018-08-03T10:29:14.712Z,101730.48
2018-08-03T10:30:18.954Z,101728.87
2018-08-03T10:31:23.252Z,101731.61
2018-08-03T10:32:27.460Z,101723.45
2018-08-03T10:33:31.956Z,101729.25
2018-08-03T10:34:36.813Z,101727.41
2018-08-03T10:35:41.592Z,101726.73
2018-08-03T10:36:45.766Z,101719.09
2018-08-03T10:37:50.039Z,101719.16
2018-08-03T10:38:54.545Z,101721.99
2018-08-03T10:39:58.851Z,101717.09
2018-08-03T10:41:03.131Z,101722.95
2018-08-03T10:42:07.436Z,101717.28
2018-08-03T10:43:11.709Z,101718.94
2018-08-03T10:44:15.923Z,101717.03
2018-08-03T10:45:20.201Z,101711.33
2018-08-03T10:46:24.428Z,101713.83
2018-08-03T10:47:28.745Z,101707.59
2018-08-03T10:48:33.138Z,101706.28
2018-08-03T10:49:37.476Z,101711.52
2018-08-03T10:50:41.843Z,101707.18
2018-08-03T10:51:46.219Z,101703.38
2018-08-03T10:52:50.807Z,101701.75
2018-08-03T10:53:54.986Z,101704.55
2018-08-03T10:54:59.321Z,101698.01
2018-08-03T10:56:03.608Z,101701.34
2018-08-03T10:57:08.010Z,101695.63
2018-08-03T10:58:12.244Z,101698.74
2018-08-03T10:59:16.491Z,101698.49
2018-08-03T11:00:26.191Z,101701.86
2018-08-03T11:01:30.573Z,101701.33
2018-08-03T11:02:34.845Z,101700.76
2018-08-03T11:03:39.100Z,101704.13
2018-08-03T11:04:43.334Z,101696.73
2018-08-03T11:05:47.655Z,101699.53
2018-08-03T11:06:52.022Z,101699.11
2018-08-03T11:07:56.515Z,101693.69
2018-08-03T11:09:00.713Z,101692.62
2018-08-03T11:10:05.020Z,101692.62
2018-08-03T11:11:09.223Z,101695.67
2018-08-03T11:12:13.628Z,101692.93
2018-08-03T11:13:17.890Z,101692.14
2018-08-03T11:14:22.254Z,101693.52
2018-08-03T11:15:26.517Z,101693.04
2018-08-03T11:16:30.754Z,101691.84
2018-08-03T11:17:35.140Z,101687.52
2018-08-03T11:18:39.674Z,101686.28
2018-08-03T11:19:44.763Z,101688.61
2018-08-03T11:20:48.991Z,101681.57
2018-08-03T11:21:53.394Z,101679.49
2018-08-03T11:22:58.019Z,101679.59
2018-08-03T11:24:02.532Z,101674.94
2018-08-03T11:25:07.602Z,101679.95
2018-08-03T11:26:11.823Z,101683.05
2018-08-03T11:27:16.066Z,101679.24
2018-08-03T11:28:20.281Z,101680.05
2018-08-03T11:29:24.517Z,101675.70
2018-08-03T11:30:28.719Z,101679.59
2018-08-03T11:31:42.158Z,101676.59
2018-08-03T11:32:46.407Z,101673.02
2018-08-03T11:33:50.634Z,101676.29
2018-08-03T11:34:55.137Z,101677.66
2018-08-03T11:35:59.462Z,101677.74
2018-08-03T11:37:03.685Z,101672.60
2018-08-03T11:38:08.147Z,101673.49
2018-08-03T11:39:13.004Z,101670.30
2018-08-03T11:40:17.380Z,101664.84
2018-08-03T11:41:21.556Z,101671.00
2018-08-03T11:42:25.815Z,101668.30
2018-08-03T11:43:30.146Z,101664.76
2018-08-03T11:44:34.822Z,101670.30
2018-08-03T11:45:39.086Z,101666.25
2018-08-03T11:48:11.543Z,101658.90
2018-08-03T11:49:15.906Z,101666.57
2018-08-03T11:50:20.205Z,101660.27
2018-08-03T11:51:24.581Z,101663.30
2018-08-03T11:52:28.887Z,101662.45
2018-08-03T11:53:33.448Z,101661.38
2018-08-03T11:54:37.942Z,101661.16
2018-08-03T11:55:42.155Z,101664.74
2018-08-03T11:56:46.463Z,101664.44
2018-08-03T11:57:50.668Z,101655.05
2018-08-03T11:58:55.753Z,101651.77
2018-08-03T11:59:59.974Z,101655.40
2018-08-03T12:01:04.387Z,101655.40
2018-08-03T12:02:08.934Z,101652.70
2018-08-03T12:03:13.343Z,101655.22
2018-08-03T12:04:17.533Z,101654.42
2018-08-03T12:05:21.760Z,101651.98
2018-08-03T12:06:26.011Z,101650.06
2018-08-03T12:07:30.274Z,101650.37
2018-08-03T12:08:34.564Z,101651.44
2018-08-03T12:09:38.876Z,101646.78
2018-08-03T12:10:43.395Z,101645.69
2018-08-03T12:11:47.657Z,101642.71
2018-08-03T12:12:51.923Z,101641.98
2018-08-03T12:13:56.178Z,101638.21
2018-08-03T12:15:00.853Z,101642.33
2018-08-03T12:16:05.088Z,101637.64